الصفحة الرئيسية
METAR-TAF:

METAR-TAF

مطار :

طشقند, أوزبكستان

دائرة عرض: 41-16N, خط طول: 069-16E, ارتفاع: 489 متر

مراقبة الطقس الحالي

تاريخ ووقت الإصدار 47 دقيقة قبل الساعة 06:30UTC
ريح 4 عقدة من الشرق, الاتجاه يتراوح بين الشرق/الشمال الشرقي و الجنوب/الجنوب الشرقي
درجة الحرارة 9°درجة مئوية
الرطوبة 49%
ضغط 1021 hPa
الرؤية: 7000 متر

METAR: UTTT 190630Z 10004KT 070V150 7000 NSC 09/M01 Q1021 R08R/CLRD70 NOSIG

زمن: 12:17 (07:17 UTC)

توقعات

تاريخ ووقت الإصدار 2ساعات و 17 دقيقة قبل الساعة 05:00UTC
التوقعات صالحة من19 الساعة 06 UTC إلى 20 الساعة 06 UTC
ريح 8 عقدة من الشرق
الرؤية: 7000 متر
مؤقت
من 19 الساعة 14 UTC إلى 20 الساعة 02 UTC
الرؤية: 2000 متر
غشاء

TAF: UTTT 190500Z 1906/2006 09008KT 7000 NSC TEMPO 1914/2002 2000 BR

أرصاد الطقس والتوقعات من أكثر من 4000 مطار (تقارير الطقس للمطار METAR والتنبؤ بالطقس بالمطارTAF).

المحطات المتاحة هي النقط الصفراء والحمراء على الخريطة.

حرك المؤشر فوق النقطة لمعرفة اسم المحطة.

ثم انقر لمعرفة أرصاد وتوقعات الطقس.

لتغيير الخارطة: اضغط على الأزرار الخضراء مع رمز الصليب الأسود للتكبير. على الزر الأخضر مع شرطة للتصغير، أو على الأسهم الخضراء للخرائط المجاورة.


METAR-TAF: